Fort Smith Airport

Airport
ICAO code: 
CYSM
Summary
ICAO Region: 
NAM
Territory: 
Location: 
Fort Smith, Northwest Territories,
Coordinates: 
Aerial View: 
60° 1' 10.239" N, 111° 57' 29.765" W
Airport BS: 
Non Avian Wildlife Hazards to Aircraft
Airport CFIT: 
Altimeter Temperature Error Correction
Airport GND: 
Aircraft Ground De/Anti Icing
Metar
Observation
CYSM 271200Z 28012G18KT 15SM BKN014 M16/M20 A2989 RMK SC7 SLP145
Station
Fort Smith, N. W. T.
Date/Time
2021-11-27 12:00:00
Wind direction
280°
Wind speed
12 kts
Lowest cloud amount
broken clouds
Temperature
-16°C
Dew point
-20°C
Humidity
71%
Weather condition
n/a

Description

Regional airport serving the town of Fort Smith, Northwest Territories, Canada.

Climatology

Subarctic climate (Köppen climate classification Dfc) - long, usually very cold winters, and short, cool to mild summers.

Runways

Designator Length Width Surface Rops
2/20 549 30 COM No/No
11/29 1829 61 ASP No/No
Airport map: 
Aerial View: 

SKYbrary Partners:

Safety knowledge contributed by: